Time;durP1;ratioP1;P1;durP2;ratioP2;P2;SDS_P1;SDS_P2;PMS_P1;PMS_P2;Temp;Humidity;BMP_temperature;BMP_pressure;BME280_temperature;BME280_humidity;BME280_pressure;Samples;Min_cycle;Max_cycle;Signal;HPM_P1;HPM_P2
2023/12/29 05:58:58;;;;;;;4.03;1.90;;;10.00;82.20;;;;;;4981075;23;20202;-75
2023/12/29 06:01:01;;;;;;;4.65;2.00;;;10.00;82.20;;;;;;4105785;28;20062;-75
2023/12/29 06:03:04;;;;;;;5.53;2.33;;;10.00;82.20;;;;;;4132880;28;20134;-74
2023/12/29 06:05:06;;;;;;;4.43;2.10;;;10.00;82.20;;;;;;4135257;28;20089;-75
2023/12/29 06:07:09;;;;;;;4.20;2.15;;;10.00;82.20;;;;;;4120851;28;20055;-76
2023/12/29 06:09:11;;;;;;;3.85;2.25;;;10.00;82.30;;;;;;4118712;28;20378;-76
2023/12/29 06:11:15;;;;;;;4.63;2.10;;;10.00;82.20;;;;;;4118252;28;20077;-75
2023/12/29 06:13:17;;;;;;;4.18;2.30;;;10.00;82.20;;;;;;4118005;28;20455;-78
2023/12/29 06:15:20;;;;;;;4.22;2.10;;;10.00;82.20;;;;;;4114396;28;21458;-79
2023/12/29 06:17:22;;;;;;;4.07;2.10;;;10.00;82.20;;;;;;4117496;28;20416;-78
2023/12/29 06:19:24;;;;;;;4.55;2.08;;;10.00;82.30;;;;;;4118437;28;20102;-77
2023/12/29 06:21:26;;;;;;;4.97;1.95;;;10.00;82.40;;;;;;4118300;28;20057;-80
2023/12/29 06:23:28;;;;;;;4.15;2.17;;;10.00;82.40;;;;;;4118622;28;20051;-79
2023/12/29 06:25:30;;;;;;;4.07;1.90;;;10.10;82.40;;;;;;4117488;28;20452;-78
2023/12/29 06:27:34;;;;;;;3.67;2.10;;;10.00;82.30;;;;;;4117815;28;20050;-77
2023/12/29 06:29:36;;;;;;;5.10;2.20;;;10.10;82.50;;;;;;4118361;28;20118;-78
2023/12/29 06:31:42;;;;;;;4.75;2.10;;;10.00;82.50;;;;;;4117843;28;20059;-78
2023/12/29 06:33:44;;;;;;;4.28;1.95;;;10.00;82.80;;;;;;4111023;28;20079;-78
2023/12/29 06:35:46;;;;;;;8.18;4.97;;;10.00;83.00;;;;;;4118475;28;20055;-78
2023/12/29 06:37:48;;;;;;;3.95;2.15;;;10.00;83.20;;;;;;4108568;28;20052;-75
2023/12/29 06:39:50;;;;;;;7.85;5.03;;;10.00;83.10;;;;;;4102249;29;20050;-76
2023/12/29 06:41:52;;;;;;;4.45;2.22;;;10.00;83.30;;;;;;4102282;29;20102;-77
2023/12/29 06:43:53;;;;;;;3.67;1.95;;;10.00;83.20;;;;;;4102043;29;20090;-76
2023/12/29 06:45:54;;;;;;;4.10;2.20;;;10.00;83.20;;;;;;4101480;29;20051;-79
2023/12/29 06:47:58;;;;;;;3.63;1.98;;;10.00;83.20;;;;;;4100820;29;20051;-78
2023/12/29 06:49:59;;;;;;;3.75;2.05;;;10.00;83.30;;;;;;4101254;29;20044;-79
2023/12/29 06:52:01;;;;;;;4.25;2.17;;;10.00;83.30;;;;;;4086240;29;20066;-78
2023/12/29 06:54:03;;;;;;;4.35;2.10;;;10.00;83.40;;;;;;4094341;29;20039;-79
2023/12/29 06:56:05;;;;;;;4.82;2.22;;;10.00;83.50;;;;;;4100720;29;20517;-77
2023/12/29 06:58:08;;;;;;;3.70;2.13;;;10.00;83.50;;;;;;4102034;29;20051;-77
2023/12/29 07:00:11;;;;;;;4.82;2.30;;;10.00;83.50;;;;;;4101635;29;20460;-78
2023/12/29 07:02:12;;;;;;;3.65;2.10;;;10.00;83.60;;;;;;4101608;29;20114;-78
2023/12/29 07:04:16;;;;;;;4.72;1.98;;;10.00;83.50;;;;;;4103603;29;20114;-78
2023/12/29 07:06:18;;;;;;;4.60;2.25;;;10.00;83.70;;;;;;4101909;29;20078;-77
2023/12/29 07:08:19;;;;;;;4.05;2.00;;;10.00;83.90;;;;;;4102160;29;20425;-80
2023/12/29 07:10:21;;;;;;;4.43;2.08;;;10.00;84.00;;;;;;4097456;29;20075;-79
2023/12/29 07:12:23;;;;;;;3.53;1.80;;;10.00;84.10;;;;;;4093623;29;20043;-76
2023/12/29 07:14:25;;;;;;;4.72;2.13;;;10.00;84.10;;;;;;4104572;29;20051;-80
2023/12/29 07:16:27;;;;;;;3.55;2.00;;;10.00;84.10;;;;;;4098676;29;20332;-74
2023/12/29 07:18:28;;;;;;;3.85;2.13;;;10.00;84.00;;;;;;4101520;29;20677;-75
2023/12/29 07:20:31;;;;;;;4.82;2.20;;;10.00;84.10;;;;;;4100224;28;20102;-75
2023/12/29 07:22:33;;;;;;;5.00;2.05;;;10.00;84.20;;;;;;4088895;29;20059;-76
2023/12/29 07:24:36;;;;;;;4.38;2.10;;;10.00;84.20;;;;;;4095516;29;20071;-76
2023/12/29 07:26:38;;;;;;;4.20;2.03;;;10.00;84.20;;;;;;4094259;29;20438;-73
2023/12/29 07:28:40;;;;;;;4.32;1.80;;;10.00;84.90;;;;;;4101007;29;20086;-75
2023/12/29 07:30:42;;;;;;;3.28;1.90;;;10.00;84.10;;;;;;4091900;29;20055;-75
2023/12/29 07:32:44;;;;;;;5.20;2.03;;;10.10;84.20;;;;;;4101136;29;20044;-75
2023/12/29 07:34:46;;;;;;;4.63;2.10;;;10.00;84.20;;;;;;4101297;29;20058;-76
2023/12/29 07:36:49;;;;;;;4.30;2.10;;;10.00;84.30;;;;;;4100245;29;20043;-77
2023/12/29 07:38:50;;;;;;;4.28;2.05;;;10.00;84.40;;;;;;4101283;29;20134;-75
2023/12/29 07:40:52;;;;;;;3.90;1.98;;;10.00;85.20;;;;;;4099406;29;20516;-75
2023/12/29 07:42:53;;;;;;;3.63;1.88;;;10.00;84.50;;;;;;4100290;29;20043;-78
2023/12/29 07:44:56;;;;;;;4.10;1.92;;;10.00;84.50;;;;;;4101352;29;20053;-75
2023/12/29 07:46:58;;;;;;;3.63;1.90;;;10.00;84.60;;;;;;4101164;29;20405;-75
2023/12/29 07:49:00;;;;;;;4.45;2.05;;;10.00;84.50;;;;;;4101201;29;20130;-75
2023/12/29 07:51:06;;;;;;;3.78;1.92;;;10.10;84.40;;;;;;4100906;29;20099;-75
2023/12/29 07:53:09;;;;;;;;;;;10.10;84.10;;;;;;4100984;29;20051;-74
2023/12/29 07:55:10;;;;;;;4.03;2.05;;;10.10;83.90;;;;;;4100522;29;19953;-76
2023/12/29 07:57:12;;;;;;;3.72;2.03;;;10.10;83.80;;;;;;4099723;29;20051;-75
2023/12/29 07:59:14;;;;;;;3.60;2.10;;;10.10;83.70;;;;;;4101010;29;20048;-76
2023/12/29 08:01:16;;;;;;;3.20;1.77;;;10.10;83.40;;;;;;4100093;29;20059;-76
2023/12/29 08:03:18;;;;;;;3.40;2.10;;;10.20;83.20;;;;;;4090644;29;20043;-75
2023/12/29 08:05:19;;;;;;;5.07;1.80;;;10.20;82.90;;;;;;4101102;29;20098;-74
2023/12/29 08:07:21;;;;;;;4.35;1.88;;;10.20;82.80;;;;;;4100720;29;20058;-78
2023/12/29 08:09:24;;;;;;;5.38;1.60;;;10.20;82.60;;;;;;4090203;29;20185;-79
2023/12/29 08:11:26;;;;;;;3.90;1.90;;;10.30;82.50;;;;;;4085474;29;20055;-79
2023/12/29 08:13:28;;;;;;;4.60;1.90;;;10.30;82.20;;;;;;4092287;29;20047;-79
2023/12/29 08:15:31;;;;;;;3.22;1.70;;;10.40;81.90;;;;;;4100572;29;20138;-79
2023/12/29 08:17:35;;;;;;;4.20;1.88;;;10.40;81.60;;;;;;4096760;29;20123;-77
2023/12/29 08:19:37;;;;;;;4.82;2.35;;;10.40;81.40;;;;;;4101035;29;20416;-80
2023/12/29 08:21:39;;;;;;;3.72;2.00;;;10.40;81.30;;;;;;4098612;29;20078;-77
2023/12/29 08:23:41;;;;;;;4.53;2.00;;;10.40;81.10;;;;;;4085334;29;20043;-76
2023/12/29 08:25:43;;;;;;;4.43;2.03;;;10.50;81.20;;;;;;4090968;29;20054;-79
2023/12/29 08:27:45;;;;;;;5.13;1.98;;;10.50;80.90;;;;;;4099567;29;20065;-75
2023/12/29 08:29:47;;;;;;;4.65;1.90;;;10.50;80.80;;;;;;4102687;29;20119;-75
2023/12/29 08:31:49;;;;;;;4.30;1.80;;;10.50;80.70;;;;;;4099936;28;20055;-74
2023/12/29 08:33:51;;;;;;;3.78;1.95;;;10.50;80.40;;;;;;4088530;29;20056;-76
2023/12/29 08:35:51;;;;;;;3.08;1.60;;;10.50;80.40;;;;;;4100751;29;20055;-76
2023/12/29 08:37:53;;;;;;;4.00;1.90;;;10.50;80.10;;;;;;4100896;29;20043;-75
2023/12/29 08:39:56;;;;;;;4.18;1.83;;;10.50;80.40;;;;;;4101236;29;20118;-75
2023/12/29 08:41:59;;;;;;;3.35;1.80;;;10.60;80.30;;;;;;4100517;29;20051;-75
2023/12/29 08:44:00;;;;;;;3.10;1.60;;;10.60;80.10;;;;;;4100842;29;20481;-74
2023/12/29 08:46:02;;;;;;;3.10;1.50;;;10.60;80.00;;;;;;4100404;29;20050;-75
2023/12/29 08:48:05;;;;;;;3.03;1.58;;;10.70;79.90;;;;;;4100346;29;20082;-75
2023/12/29 08:50:08;;;;;;;4.25;1.75;;;10.70;79.70;;;;;;4100585;29;20051;-76
2023/12/29 08:52:10;;;;;;;3.88;1.80;;;10.70;79.60;;;;;;4098925;29;20048;-75
2023/12/29 08:54:11;;;;;;;4.40;1.80;;;10.70;79.60;;;;;;4096589;29;20039;-76
2023/12/29 08:56:14;;;;;;;4.70;1.70;;;10.80;79.50;;;;;;4088041;29;20114;-78
2023/12/29 08:58:17;;;;;;;4.80;2.00;;;10.80;79.40;;;;;;4085237;29;20102;-76
2023/12/29 09:00:18;;;;;;;3.80;1.55;;;10.80;79.40;;;;;;4084548;29;20064;-75
2023/12/29 09:02:20;;;;;;;3.35;1.70;;;10.80;79.20;;;;;;4085463;29;20051;-77
2023/12/29 09:04:22;;;;;;;3.05;1.67;;;10.90;79.40;;;;;;4088391;29;20048;-76
2023/12/29 09:06:24;;;;;;;4.10;1.60;;;10.90;79.40;;;;;;4098459;29;20433;-77
2023/12/29 09:08:25;;;;;;;3.78;1.50;;;10.90;79.20;;;;;;4092200;29;20458;-77
2023/12/29 09:10:27;;;;;;;3.42;1.73;;;11.00;79.20;;;;;;4101777;29;20047;-78
2023/12/29 09:12:28;;;;;;;3.35;1.65;;;11.00;79.10;;;;;;4101304;29;20098;-78
2023/12/29 09:14:34;;;;;;;3.97;1.60;;;11.00;79.00;;;;;;4101472;29;20483;-78
2023/12/29 09:16:37;;;;;;;3.67;1.50;;;11.00;78.80;;;;;;4097988;29;20048;-76
2023/12/29 09:18:39;;;;;;;3.88;1.50;;;11.00;78.90;;;;;;4085969;29;20051;-78
2023/12/29 09:20:40;;;;;;;3.22;1.40;;;11.10;78.90;;;;;;4088122;29;20095;-76
2023/12/29 09:22:42;;;;;;;3.20;1.30;;;11.10;78.40;;;;;;4101561;29;20047;-77
2023/12/29 09:24:44;;;;;;;2.80;1.33;;;11.20;78.40;;;;;;4101047;29;20106;-78
2023/12/29 09:26:46;;;;;;;2.80;1.38;;;11.20;78.30;;;;;;4099671;29;20200;-80
2023/12/29 09:28:49;;;;;;;3.60;1.73;;;11.20;78.10;;;;;;4101492;29;20471;-78
2023/12/29 09:30:52;;;;;;;2.85;1.27;;;11.20;78.00;;;;;;4101302;29;20103;-78
2023/12/29 09:32:54;;;;;;;3.85;1.50;;;11.30;78.00;;;;;;4091125;29;20058;-77
2023/12/29 09:34:55;;;;;;;2.75;1.10;;;11.20;77.40;;;;;;4098394;29;20052;-77
2023/12/29 09:36:56;;;;;;;2.47;1.27;;;11.20;77.30;;;;;;4097361;29;20130;-78
2023/12/29 09:38:58;;;;;;;3.72;1.40;;;11.20;77.30;;;;;;4100223;29;20056;-80
2023/12/29 09:41:05;;;;;;;2.60;1.20;;;11.30;77.30;;;;;;4100741;29;20051;-75
2023/12/29 09:43:09;;;;;;;3.60;1.15;;;11.30;77.30;;;;;;4094699;29;20544;-77
2023/12/29 09:45:13;;;;;;;4.40;1.40;;;11.30;77.10;;;;;;4087199;29;20507;-79
2023/12/29 09:47:23;;;;;;;3.03;1.30;;;11.30;76.70;;;;;;4087373;29;20099;-79
2023/12/29 09:49:26;;;;;;;2.90;1.30;;;11.30;76.50;;;;;;4088305;29;20099;-79
2023/12/29 09:51:28;;;;;;;3.05;1.25;;;11.40;76.30;;;;;;4102058;29;20043;-77
2023/12/29 09:53:30;;;;;;;2.50;1.20;;;11.40;75.90;;;;;;4095808;29;20047;-79
2023/12/29 09:55:32;;;;;;;2.65;1.10;;;11.50;75.90;;;;;;4087309;29;20086;-80
2023/12/29 09:57:34;;;;;;;3.20;1.50;;;11.50;76.10;;;;;;4087072;29;20077;-79
2023/12/29 09:59:37;;;;;;;3.10;1.27;;;11.40;76.30;;;;;;4095105;29;20058;-79
2023/12/29 10:01:44;;;;;;;2.42;1.10;;;11.40;76.20;;;;;;4105337;29;20488;-76
2023/12/29 10:03:48;;;;;;;3.53;1.15;;;11.40;76.10;;;;;;4103641;29;20070;-76
2023/12/29 10:05:56;;;;;;;2.60;1.30;;;11.50;76.10;;;;;;4103004;29;20547;-77
2023/12/29 10:08:03;;;;;;;3.15;1.30;;;11.50;76.20;;;;;;4102108;29;20054;-77
2023/12/29 10:10:07;;;;;;;2.42;1.13;;;11.50;75.90;;;;;;4100819;29;20058;-78
2023/12/29 10:12:11;;;;;;;3.33;1.27;;;11.50;75.90;;;;;;4100654;29;20078;-77
2023/12/29 10:14:23;;;;;;;2.80;1.15;;;11.50;75.50;;;;;;4100441;29;20106;-78
2023/12/29 10:16:32;;;;;;;2.72;1.00;;;11.50;74.80;;;;;;4100159;29;20051;-77
2023/12/29 10:18:57;;;;;;;2.67;1.15;;;11.60;74.90;;;;;;4099135;29;20102;-78
2023/12/29 10:21:03;;;;;;;2.70;1.15;;;11.60;74.50;;;;;;4098694;29;20083;-77
2023/12/29 10:23:10;;;;;;;3.00;1.30;;;11.60;74.70;;;;;;4101155;29;20079;-78
2023/12/29 10:25:11;;;;;;;2.80;1.33;;;11.60;74.40;;;;;;4100750;29;20131;-79
2023/12/29 10:27:13;;;;;;;7.13;3.08;;;11.60;74.30;;;;;;4100193;29;20047;-78
2023/12/29 10:29:15;;;;;;;2.17;1.00;;;11.60;74.20;;;;;;4095689;29;20055;-79
2023/12/29 10:31:17;;;;;;;2.35;1.00;;;11.60;74.40;;;;;;4093422;29;20051;-79
2023/12/29 10:33:24;;;;;;;2.72;1.20;;;11.60;74.30;;;;;;4100291;29;20047;-78
2023/12/29 10:35:27;;;;;;;2.47;1.13;;;11.70;74.40;;;;;;4092403;29;20095;-78
2023/12/29 10:37:29;;;;;;;3.08;1.10;;;11.70;74.20;;;;;;4085212;29;20110;-77
2023/12/29 10:39:30;;;;;;;2.85;1.25;;;11.70;73.90;;;;;;4084324;29;20060;-76
2023/12/29 10:41:32;;;;;;;2.50;1.10;;;11.80;73.90;;;;;;4085038;29;20051;-77
2023/12/29 10:43:34;;;;;;;2.95;1.10;;;11.90;73.60;;;;;;4092991;29;20436;-77
2023/12/29 10:45:36;;;;;;;2.33;1.10;;;11.90;72.80;;;;;;4099149;29;20114;-76
2023/12/29 10:47:39;;;;;;;3.28;1.20;;;12.00;72.80;;;;;;4094880;29;20054;-79
2023/12/29 10:49:42;;;;;;;2.95;1.20;;;12.00;72.80;;;;;;4099831;29;20047;-76
2023/12/29 10:51:44;;;;;;;2.47;1.20;;;12.10;73.00;;;;;;4093275;29;20048;-75
2023/12/29 10:53:56;;;;;;;3.10;1.10;;;12.10;72.50;;;;;;4098043;29;20050;-78
2023/12/29 10:55:58;;;;;;;2.05;0.98;;;12.10;72.80;;;;;;4099253;29;20201;-77
2023/12/29 10:58:01;;;;;;;4.57;1.80;;;12.10;72.60;;;;;;4098806;29;20055;-79
2023/12/29 11:00:05;;;;;;;2.42;1.10;;;12.10;72.20;;;;;;4097989;29;20051;-78
2023/12/29 11:02:08;;;;;;;4.45;1.15;;;12.20;72.00;;;;;;4100465;29;20058;-76
2023/12/29 11:04:11;;;;;;;2.97;1.00;;;12.20;70.80;;;;;;4095836;29;20456;-78
2023/12/29 11:06:12;;;;;;;2.00;0.90;;;12.20;70.30;;;;;;4097731;29;20049;-77
2023/12/29 11:08:20;;;;;;;2.45;1.10;;;12.20;70.50;;;;;;4096790;29;20054;-75
2023/12/29 11:10:22;;;;;;;2.88;1.00;;;12.20;70.20;;;;;;4096842;29;20055;-76
2023/12/29 11:12:24;;;;;;;2.58;1.10;;;12.10;69.60;;;;;;4099618;29;20044;-77
2023/12/29 11:14:29;;;;;;;3.28;0.98;;;12.10;69.80;;;;;;4099469;29;20062;-75
2023/12/29 11:16:32;;;;;;;2.05;0.85;;;12.20;69.30;;;;;;4099101;29;20055;-76
2023/12/29 11:18:35;;;;;;;3.05;1.00;;;12.20;69.00;;;;;;4099957;29;20292;-76
2023/12/29 11:20:39;;;;;;;1.95;1.00;;;12.30;68.70;;;;;;4097611;29;20043;-77
2023/12/29 11:22:40;;;;;;;3.42;1.30;;;12.40;68.80;;;;;;4095494;29;20106;-78
2023/12/29 11:24:47;;;;;;;1.95;0.88;;;12.30;68.80;;;;;;4099612;29;20106;-77
2023/12/29 11:26:50;;;;;;;2.00;1.00;;;12.40;68.30;;;;;;4099386;29;20113;-78
2023/12/29 11:28:53;;;;;;;2.92;1.00;;;12.40;68.20;;;;;;4099284;29;20051;-77
2023/12/29 11:30:54;;;;;;;3.10;1.10;;;12.50;68.50;;;;;;4085137;29;20115;-78
2023/12/29 11:33:03;;;;;;;2.70;1.20;;;12.50;68.10;;;;;;4098691;29;20047;-78
2023/12/29 11:35:13;;;;;;;3.65;1.27;;;12.50;68.10;;;;;;4098619;29;20142;-81
2023/12/29 11:37:28;;;;;;;2.13;0.95;;;12.50;68.20;;;;;;4099055;29;20058;-79
2023/12/29 11:39:41;;;;;;;2.92;1.25;;;12.50;67.80;;;;;;4083608;29;20047;-79
2023/12/29 11:41:52;;;;;;;2.97;0.90;;;12.60;68.00;;;;;;4089123;29;20043;-79
2023/12/29 11:43:58;;;;;;;2.25;0.90;;;12.50;68.00;;;;;;4099292;29;20051;-80
2023/12/29 11:46:00;;;;;;;;;;;12.50;67.90;;;;;;4098883;29;20476;-77
2023/12/29 11:48:02;;;;;;;2.28;1.08;;;12.50;67.90;;;;;;4098376;29;19926;-76
2023/12/29 11:50:05;;;;;;;2.38;1.08;;;12.50;68.30;;;;;;4085937;29;20086;-77
2023/12/29 11:52:07;;;;;;;5.32;2.28;;;12.50;67.80;;;;;;4082959;29;20048;-77
2023/12/29 11:54:09;;;;;;;3.55;1.42;;;12.50;68.00;;;;;;4091810;29;20501;-76
2023/12/29 11:56:15;;;;;;;2.70;1.00;;;12.50;68.40;;;;;;4086425;29;20043;-77
2023/12/29 11:58:36;;;;;;;2.63;1.10;;;12.40;67.50;;;;;;4087038;29;20159;-77
2023/12/29 12:00:42;;;;;;;2.33;0.93;;;12.50;67.40;;;;;;4096582;29;20062;-79
2023/12/29 12:02:44;;;;;;;2.25;1.00;;;12.50;66.80;;;;;;4094539;29;20090;-78
2023/12/29 12:04:45;;;;;;;3.05;1.10;;;12.60;67.10;;;;;;4090230;29;20054;-76
2023/12/29 12:06:47;;;;;;;3.97;1.15;;;12.60;67.20;;;;;;4094433;28;20051;-79
2023/12/29 12:08:49;;;;;;;2.35;1.05;;;12.60;67.30;;;;;;4090201;29;20181;-79
2023/12/29 12:10:50;;;;;;;2.22;1.10;;;12.70;67.60;;;;;;4090571;29;20054;-78
2023/12/29 12:12:53;;;;;;;3.28;1.33;;;12.90;67.10;;;;;;4090663;29;20051;-79
2023/12/29 12:14:55;;;;;;;2.78;1.10;;;12.90;66.50;;;;;;4095981;29;20594;-78
2023/12/29 12:16:58;;;;;;;2.75;1.15;;;13.00;67.00;;;;;;4086805;29;20059;-77
2023/12/29 12:18:59;;;;;;;2.90;1.10;;;13.00;66.30;;;;;;4081512;29;20052;-79
2023/12/29 12:21:03;;;;;;;2.80;1.30;;;13.00;66.70;;;;;;4079835;29;20110;-78
2023/12/29 12:23:12;;;;;;;2.53;1.10;;;13.10;66.20;;;;;;4087400;29;20067;-75
2023/12/29 12:25:14;;;;;;;2.53;1.10;;;13.30;65.90;;;;;;4092802;29;20082;-78
2023/12/29 12:27:15;;;;;;;3.00;1.15;;;13.40;65.90;;;;;;4090019;29;20084;-78
2023/12/29 12:29:19;;;;;;;3.65;1.30;;;13.40;65.50;;;;;;4095465;29;20490;-80
2023/12/29 12:31:23;;;;;;;3.05;1.02;;;13.40;65.40;;;;;;4093437;29;20162;-78
2023/12/29 12:33:25;;;;;;;3.00;1.00;;;13.60;65.40;;;;;;4098510;29;20058;-79
2023/12/29 12:35:27;;;;;;;2.65;0.90;;;13.60;64.80;;;;;;4099000;29;20054;-78
2023/12/29 12:37:30;;;;;;;2.20;1.00;;;13.90;64.80;;;;;;4094785;29;20062;-78
2023/12/29 12:39:40;;;;;;;2.92;1.00;;;13.80;63.90;;;;;;4098103;29;20121;-78
2023/12/29 12:41:41;;;;;;;2.70;1.10;;;13.70;64.20;;;;;;4096964;29;20134;-77
2023/12/29 12:44:01;;;;;;;2.08;1.00;;;13.80;64.00;;;;;;4098662;29;20050;-77
2023/12/29 12:46:04;;;;;;;3.15;1.00;;;14.10;62.80;;;;;;4098719;29;20114;-78
2023/12/29 12:48:15;;;;;;;3.50;1.10;;;14.80;61.50;;;;;;4086481;29;20051;-80
2023/12/29 12:50:17;;;;;;;2.47;1.00;;;15.70;58.50;;;;;;4083400;29;20052;-76
2023/12/29 12:52:19;;;;;;;2.50;1.00;;;16.50;56.00;;;;;;4083436;29;20162;-76
2023/12/29 12:54:22;;;;;;;2.65;1.00;;;16.40;56.40;;;;;;4082711;29;20079;-80
2023/12/29 12:56:27;;;;;;;2.80;1.17;;;17.20;54.10;;;;;;4082557;29;20162;-77
2023/12/29 12:58:31;;;;;;;2.13;1.10;;;17.60;53.10;;;;;;4096547;29;20721;-78
2023/12/29 13:00:33;;;;;;;2.45;1.00;;;17.70;51.90;;;;;;4096789;29;20063;-77
2023/12/29 13:02:36;;;;;;;2.25;1.08;;;17.00;52.80;;;;;;4098427;29;20106;-76
2023/12/29 13:04:42;;;;;;;2.85;1.23;;;17.30;52.80;;;;;;4097190;29;20046;-77
2023/12/29 13:06:44;;;;;;;2.38;1.17;;;17.60;51.70;;;;;;4098359;29;20086;-78
2023/12/29 13:08:49;;;;;;;3.10;1.35;;;17.30;52.10;;;;;;4082288;29;20462;-79
2023/12/29 13:10:51;;;;;;;2.60;1.27;;;17.30;51.70;;;;;;4087503;29;20047;-77
2023/12/29 13:12:56;;;;;;;3.50;1.73;;;18.10;51.70;;;;;;4097364;28;20043;-79
2023/12/29 13:15:08;;;;;;;3.40;1.30;;;17.80;51.70;;;;;;4098486;29;20063;-77
2023/12/29 13:17:11;;;;;;;2.35;0.98;;;19.70;47.90;;;;;;4096910;28;20174;-76
2023/12/29 13:19:18;;;;;;;2.33;1.00;;;20.00;45.30;;;;;;4100889;29;20090;-76
2023/12/29 13:21:21;;;;;;;3.10;1.17;;;20.80;44.20;;;;;;4099497;29;20051;-75
2023/12/29 13:23:27;;;;;;;2.60;1.10;;;20.90;43.30;;;;;;4085740;29;20107;-77
2023/12/29 13:25:29;;;;;;;2.70;1.20;;;20.60;42.80;;;;;;4085885;29;20142;-78
2023/12/29 13:27:32;;;;;;;2.65;1.30;;;19.00;45.00;;;;;;4086943;29;20460;-77
2023/12/29 13:29:35;;;;;;;3.10;1.20;;;18.70;46.50;;;;;;4085475;29;20056;-76
2023/12/29 13:31:42;;;;;;;2.72;1.20;;;19.20;46.60;;;;;;4085849;29;20052;-77
2023/12/29 13:33:51;;;;;;;4.57;1.00;;;18.90;45.30;;;;;;4099698;29;20110;-76
2023/12/29 13:35:59;;;;;;;4.32;1.30;;;18.40;46.50;;;;;;4094019;29;20048;-77
2023/12/29 13:38:09;;;;;;;3.60;1.10;;;17.60;48.10;;;;;;4086798;29;20075;-77
2023/12/29 13:40:17;;;;;;;2.88;1.20;;;16.60;49.60;;;;;;4085615;29;20055;-74
2023/12/29 13:42:22;;;;;;;2.55;1.10;;;16.30;51.40;;;;;;4085322;29;20047;-76
2023/12/29 13:44:26;;;;;;;2.42;1.20;;;16.90;51.10;;;;;;4085095;29;20052;-76
2023/12/29 13:46:28;;;;;;;2.60;1.17;;;16.80;51.50;;;;;;4086473;29;20473;-76
2023/12/29 13:48:32;;;;;;;2.08;1.05;;;16.10;51.40;;;;;;4085807;29;20048;-74
2023/12/29 13:50:34;;;;;;;2.40;1.05;;;15.90;52.20;;;;;;4085242;29;20123;-76
2023/12/29 13:52:37;;;;;;;3.72;1.30;;;15.70;53.10;;;;;;4085252;29;20051;-77
2023/12/29 13:54:43;;;;;;;2.40;1.10;;;15.80;52.80;;;;;;4085274;29;20379;-77
2023/12/29 13:56:54;;;;;;;2.65;1.20;;;16.10;52.60;;;;;;4085908;29;20134;-75
2023/12/29 13:58:56;;;;;;;2.70;1.02;;;16.40;51.10;;;;;;4085720;29;20051;-77
2023/12/29 14:00:59;;;;;;;2.70;1.13;;;16.00;51.10;;;;;;4084525;29;20056;-77
2023/12/29 14:03:05;;;;;;;2.75;1.10;;;15.80;51.90;;;;;;4084872;29;20115;-76
2023/12/29 14:05:16;;;;;;;2.60;1.13;;;15.70;51.60;;;;;;4085350;29;20151;-74
2023/12/29 14:07:25;;;;;;;3.22;1.20;;;15.80;51.60;;;;;;4089549;29;20059;-76
2023/12/29 14:09:27;;;;;;;3.08;1.20;;;15.50;51.70;;;;;;4097415;29;20070;-75
2023/12/29 14:11:30;;;;;;;2.53;1.13;;;14.90;52.20;;;;;;4090673;29;20051;-75
2023/12/29 14:13:32;;;;;;;3.28;1.23;;;14.60;52.90;;;;;;4091256;29;20131;-77
2023/12/29 14:15:37;;;;;;;2.83;1.30;;;14.20;53.30;;;;;;4091984;29;20047;-77
2023/12/29 14:17:39;;;;;;;3.03;1.10;;;13.80;54.30;;;;;;4089908;29;20090;-79
2023/12/29 14:19:41;;;;;;;3.88;1.15;;;13.60;53.80;;;;;;4096174;29;20485;-79
2023/12/29 14:21:43;;;;;;;3.13;1.10;;;13.40;54.40;;;;;;4095530;29;20103;-76
2023/12/29 14:23:58;;;;;;;3.30;1.20;;;13.30;54.20;;;;;;4085017;29;20082;-77
2023/12/29 14:26:03;;;;;;;3.28;1.10;;;13.30;54.80;;;;;;4094446;29;20055;-78
2023/12/29 14:28:17;;;;;;;2.65;1.00;;;13.10;54.60;;;;;;4101878;29;20062;-77
2023/12/29 14:30:19;;;;;;;3.42;1.17;;;13.10;54.80;;;;;;4103064;28;20087;-78
2023/12/29 14:32:20;;;;;;;2.50;1.20;;;13.10;54.70;;;;;;4102695;29;20074;-76
2023/12/29 14:34:22;;;;;;;2.78;1.10;;;13.10;54.50;;;;;;4102392;29;20054;-78
2023/12/29 14:36:23;;;;;;;3.58;1.33;;;13.10;54.60;;;;;;4103035;29;20051;-77
2023/12/29 14:38:26;;;;;;;3.38;1.00;;;13.10;54.60;;;;;;4093880;29;20115;-78
2023/12/29 14:40:28;;;;;;;3.38;1.33;;;13.10;54.70;;;;;;4085111;29;20056;-78
2023/12/29 14:42:30;;;;;;;2.58;1.10;;;12.90;55.00;;;;;;4085471;29;20055;-79
2023/12/29 14:44:34;;;;;;;3.05;1.00;;;12.80;55.20;;;;;;4094563;29;20060;-79
2023/12/29 14:46:37;;;;;;;3.38;1.23;;;12.80;55.80;;;;;;4084481;29;20513;-79
2023/12/29 14:48:39;;;;;;;3.90;1.38;;;12.80;55.70;;;;;;4088052;29;20070;-78
2023/12/29 14:50:45;;;;;;;3.22;1.20;;;12.60;56.00;;;;;;4090641;29;20489;-76
2023/12/29 14:52:46;;;;;;;3.53;1.20;;;12.70;56.10;;;;;;4085573;29;20048;-80
2023/12/29 14:54:49;;;;;;;5.65;2.45;;;12.70;56.10;;;;;;4085666;29;20055;-77
2023/12/29 14:56:51;;;;;;;14.07;7.95;;;12.70;55.90;;;;;;4096633;29;20059;-75
2023/12/29 14:58:53;;;;;;;3.00;1.30;;;12.70;56.00;;;;;;4086846;29;20056;-77
2023/12/29 15:00:55;;;;;;;4.28;1.20;;;12.70;56.00;;;;;;4098114;29;20464;-76
2023/12/29 15:02:57;;;;;;;4.57;1.08;;;12.70;56.00;;;;;;4099866;29;20509;-79
2023/12/29 15:04:59;;;;;;;4.22;1.23;;;12.80;55.80;;;;;;4095964;29;20047;-80
2023/12/29 15:07:00;;;;;;;2.90;1.40;;;12.70;56.00;;;;;;4100436;29;20565;-79
2023/12/29 15:09:02;;;;;;;3.38;1.30;;;12.80;56.00;;;;;;4099500;29;20067;-77
2023/12/29 15:11:05;;;;;;;3.30;1.35;;;12.70;55.70;;;;;;4098320;29;20532;-78
2023/12/29 15:13:07;;;;;;;2.72;1.30;;;12.60;55.90;;;;;;4098235;29;20111;-79
2023/12/29 15:15:10;;;;;;;2.80;1.38;;;12.50;56.90;;;;;;4089494;29;20224;-79
2023/12/29 15:17:13;;;;;;;3.20;1.48;;;12.30;56.60;;;;;;4097693;29;20158;-79
2023/12/29 15:19:15;;;;;;;2.95;1.33;;;12.20;57.10;;;;;;4099417;29;20100;-76
2023/12/29 15:21:17;;;;;;;2.65;1.20;;;12.10;57.30;;;;;;4095770;29;20094;-78
2023/12/29 15:23:19;;;;;;;4.07;1.30;;;12.10;57.50;;;;;;4091512;29;20126;-79
2023/12/29 15:25:23;;;;;;;2.92;1.50;;;12.00;57.60;;;;;;4099520;29;20102;-78
2023/12/29 15:27:25;;;;;;;5.65;1.70;;;11.90;58.00;;;;;;4091935;29;20511;-77
2023/12/29 15:29:29;;;;;;;4.25;1.40;;;11.80;58.30;;;;;;4088302;29;20447;-78
2023/12/29 15:31:30;;;;;;;3.70;1.30;;;11.80;58.60;;;;;;4098460;29;20058;-78
2023/12/29 15:33:33;;;;;;;3.25;1.30;;;11.80;58.70;;;;;;4099437;29;20051;-79
2023/12/29 15:35:34;;;;;;;3.20;1.42;;;11.70;58.90;;;;;;4099061;29;20065;-79
2023/12/29 15:37:37;;;;;;;3.10;1.33;;;11.60;59.00;;;;;;4099918;29;20717;-77
2023/12/29 15:39:42;;;;;;;2.50;1.27;;;11.60;59.90;;;;;;4092050;29;20059;-79
2023/12/29 15:41:44;;;;;;;3.65;1.40;;;11.50;59.60;;;;;;4083047;29;20110;-79
2023/12/29 15:43:46;;;;;;;4.95;1.42;;;11.50;59.90;;;;;;4096090;29;20109;-79
2023/12/29 15:45:48;;;;;;;3.03;1.27;;;11.40;60.00;;;;;;4090564;29;20048;-80
2023/12/29 15:47:50;;;;;;;5.97;1.70;;;11.30;60.30;;;;;;4091105;29;20051;-79
2023/12/29 15:49:54;;;;;;;3.88;1.50;;;11.30;60.60;;;;;;4099200;29;20144;-79
2023/12/29 15:51:56;;;;;;;2.85;1.30;;;11.20;60.80;;;;;;4098638;29;20047;-79
2023/12/29 15:53:58;;;;;;;3.90;1.63;;;11.20;61.10;;;;;;4099073;29;20093;-77
2023/12/29 15:56:02;;;;;;;3.65;1.55;;;11.10;61.40;;;;;;4099201;29;20043;-79
2023/12/29 15:58:06;;;;;;;3.40;1.50;;;11.20;61.60;;;;;;4099544;29;20118;-79
2023/12/29 16:00:10;;;;;;;3.50;1.20;;;11.10;61.60;;;;;;4097402;29;20051;-79
2023/12/29 16:02:15;;;;;;;3.15;1.45;;;11.10;61.70;;;;;;4098976;29;20055;-79
2023/12/29 16:04:17;;;;;;;3.58;1.40;;;11.10;62.50;;;;;;4086547;29;20062;-78
2023/12/29 16:06:22;;;;;;;3.28;1.30;;;11.10;61.80;;;;;;4098967;29;20055;-77
2023/12/29 16:08:27;;;;;;;36.92;19.08;;;11.00;61.90;;;;;;4098223;29;20051;-79
2023/12/29 16:10:29;;;;;;;15.93;7.50;;;11.00;62.00;;;;;;4093483;29;20062;-76
2023/12/29 16:12:34;;;;;;;5.85;2.50;;;11.00;62.10;;;;;;4083420;29;20052;-78
2023/12/29 16:14:37;;;;;;;4.15;1.60;;;11.00;62.20;;;;;;4083272;29;20061;-79
2023/12/29 16:16:42;;;;;;;3.40;1.45;;;10.90;62.20;;;;;;4083367;29;20052;-80
2023/12/29 16:18:46;;;;;;;4.13;1.50;;;10.90;62.30;;;;;;4083249;29;20052;-79
2023/12/29 16:20:50;;;;;;;4.15;1.65;;;10.90;62.40;;;;;;4087873;29;20321;-80
2023/12/29 16:22:54;;;;;;;3.22;1.50;;;10.90;62.40;;;;;;4098771;29;20061;-77
2023/12/29 16:24:59;;;;;;;4.32;1.50;;;10.90;62.50;;;;;;4099491;29;20053;-80
2023/12/29 16:27:01;;;;;;;6.10;1.80;;;10.90;62.60;;;;;;4098594;29;20098;-78
2023/12/29 16:29:02;;;;;;;4.07;1.52;;;10.80;62.60;;;;;;4098776;29;20098;-76
2023/12/29 16:31:07;;;;;;;2.95;1.50;;;10.90;62.60;;;;;;4097500;29;20078;-78
2023/12/29 16:33:08;;;;;;;3.40;1.60;;;10.90;62.60;;;;;;4088741;28;20048;-78
2023/12/29 16:35:10;;;;;;;4.07;1.50;;;10.90;63.30;;;;;;4092433;29;20382;-79
2023/12/29 16:37:11;;;;;;;3.63;1.40;;;10.90;62.60;;;;;;4090685;29;20177;-78
2023/12/29 16:39:14;;;;;;;2.97;1.40;;;10.90;62.60;;;;;;4097767;29;20058;-78
2023/12/29 16:41:17;;;;;;;3.63;1.45;;;10.80;62.70;;;;;;4095969;29;20047;-78